createdAt,value
2022-12-01T00:01:12.665Z,100.00
2022-12-01T00:03:59.721Z,100.00
2022-12-01T00:06:32.500Z,100.00
2022-12-01T00:09:37.584Z,100.00
2022-12-01T00:12:04.408Z,100.00
2022-12-01T00:14:31.028Z,100.00
2022-12-01T00:16:57.750Z,100.00
2022-12-01T00:19:25.624Z,100.00
2022-12-01T00:21:52.773Z,100.00
2022-12-01T00:24:19.539Z,100.00
2022-12-01T00:26:46.083Z,100.00
2022-12-01T00:29:12.871Z,100.00
2022-12-01T00:31:39.543Z,100.00
2022-12-01T00:34:11.076Z,100.00
2022-12-01T00:36:38.482Z,100.00
2022-12-01T00:39:05.101Z,100.00
2022-12-01T00:41:31.796Z,100.00
2022-12-01T00:43:58.416Z,100.00
2022-12-01T00:46:25.074Z,100.00
2022-12-01T00:48:51.710Z,100.00
2022-12-01T00:51:18.360Z,100.00
2022-12-01T00:53:45.965Z,100.00
2022-12-01T00:56:13.390Z,100.00
2022-12-01T00:58:39.979Z,100.00
2022-12-01T01:01:07.138Z,100.00
2022-12-01T01:03:34.277Z,100.00
2022-12-01T01:06:11.732Z,100.00
2022-12-01T01:08:39.157Z,100.00
2022-12-01T01:11:07.144Z,100.00
2022-12-01T01:13:34.181Z,100.00
2022-12-01T01:16:06.741Z,100.00
2022-12-01T01:18:33.791Z,100.00
2022-12-01T01:21:03.930Z,100.00
2022-12-01T01:23:31.162Z,100.00
2022-12-01T01:26:08.874Z,100.00
2022-12-01T01:28:35.497Z,100.00
2022-12-01T01:31:07.073Z,100.00
2022-12-01T01:33:36.679Z,100.00
2022-12-01T01:36:04.602Z,100.00
2022-12-01T01:38:31.833Z,100.00
2022-12-01T01:40:58.707Z,100.00
2022-12-01T01:43:58.967Z,100.00
2022-12-01T01:46:28.477Z,100.00
2022-12-01T01:49:10.299Z,100.00
2022-12-01T01:51:46.329Z,100.00
2022-12-01T01:54:18.423Z,100.00
2022-12-01T01:56:46.483Z,100.00
2022-12-01T01:59:15.682Z,100.00
2022-12-01T02:01:42.357Z,100.00
2022-12-01T02:04:09.376Z,100.00
2022-12-01T02:06:35.988Z,100.00
2022-12-01T02:09:02.678Z,100.00
2022-12-01T02:11:50.896Z,100.00
2022-12-01T02:14:26.020Z,100.00
2022-12-01T02:17:10.717Z,100.00
2022-12-01T02:20:02.085Z,100.00
2022-12-01T02:22:28.806Z,100.00
2022-12-01T02:25:25.537Z,100.00
2022-12-01T02:28:22.931Z,100.00
2022-12-01T02:31:21.956Z,100.00
2022-12-01T02:33:56.378Z,100.00
2022-12-01T02:36:40.024Z,100.00
2022-12-01T02:39:10.934Z,100.00
2022-12-01T02:41:49.064Z,100.00
2022-12-01T02:44:23.558Z,100.00
2022-12-01T02:47:05.420Z,100.00
2022-12-01T02:49:45.594Z,100.00
2022-12-01T02:52:13.926Z,100.00
2022-12-01T02:54:41.623Z,100.00
2022-12-01T02:57:12.894Z,100.00
2022-12-01T02:59:45.338Z,100.00
2022-12-01T03:02:24.653Z,100.00
2022-12-01T03:05:11.143Z,100.00
2022-12-01T03:08:13.871Z,100.00
2022-12-01T03:10:57.867Z,100.00
2022-12-01T03:13:38.525Z,100.00
2022-12-01T03:16:11.296Z,100.00
2022-12-01T03:18:57.651Z,100.00
2022-12-01T03:21:32.009Z,100.00
2022-12-01T03:24:06.044Z,100.00
2022-12-01T03:26:33.462Z,100.00
2022-12-01T03:29:05.611Z,100.00
2022-12-01T03:31:35.710Z,100.00
2022-12-01T03:34:09.939Z,100.00
2022-12-01T03:36:40.988Z,100.00
2022-12-01T03:39:12.021Z,100.00
2022-12-01T03:41:43.659Z,100.00
2022-12-01T03:44:20.303Z,100.00
2022-12-01T03:46:51.828Z,100.00
2022-12-01T03:49:19.173Z,100.00
2022-12-01T03:52:08.977Z,100.00
2022-12-01T03:54:35.526Z,100.00
2022-12-01T03:57:05.703Z,100.00
2022-12-01T03:59:35.518Z,100.00
2022-12-01T04:02:02.383Z,100.00
2022-12-01T04:04:29.220Z,100.00
2022-12-01T04:06:55.900Z,100.00
2022-12-01T04:09:22.531Z,100.00
2022-12-01T04:12:11.249Z,100.00
2022-12-01T04:14:38.045Z,100.00
2022-12-01T04:17:04.775Z,100.00
2022-12-01T04:19:32.107Z,100.00
2022-12-01T04:21:58.710Z,100.00
2022-12-01T04:24:25.294Z,100.00
2022-12-01T04:26:51.924Z,100.00
2022-12-01T04:29:18.621Z,100.00
2022-12-01T04:31:45.288Z,100.00
2022-12-01T04:34:12.036Z,98.96
2022-12-01T04:36:38.687Z,98.49
2022-12-01T04:39:05.613Z,99.75
2022-12-01T04:41:32.267Z,99.42
2022-12-01T04:43:58.844Z,100.00
2022-12-01T04:46:26.167Z,99.37
2022-12-01T04:48:55.393Z,99.43
2022-12-01T04:51:22.455Z,99.82
2022-12-01T04:53:50.421Z,100.00
2022-12-01T04:56:19.470Z,100.00
2022-12-01T04:58:46.555Z,100.00
2022-12-01T05:01:15.013Z,100.00
2022-12-01T05:03:48.909Z,100.00
2022-12-01T05:06:21.419Z,100.00
2022-12-01T05:08:48.517Z,100.00
2022-12-01T05:11:15.538Z,100.00
2022-12-01T05:13:43.799Z,100.00
2022-12-01T05:16:21.571Z,100.00
2022-12-01T05:19:15.657Z,100.00
2022-12-01T05:21:43.306Z,100.00
2022-12-01T05:24:10.801Z,100.00
2022-12-01T05:26:37.965Z,100.00
2022-12-01T05:29:04.810Z,100.00
2022-12-01T05:31:31.635Z,100.00
2022-12-01T05:33:58.336Z,100.00
2022-12-01T05:36:25.130Z,100.00
2022-12-01T05:38:51.763Z,100.00
2022-12-01T05:41:18.355Z,100.00
2022-12-01T05:43:45.040Z,100.00
2022-12-01T05:46:11.831Z,100.00
2022-12-01T05:48:38.523Z,100.00
2022-12-01T05:51:13.787Z,100.00
2022-12-01T05:53:40.458Z,100.00
2022-12-01T05:56:07.676Z,100.00
2022-12-01T05:58:34.664Z,100.00
2022-12-01T06:01:02.190Z,100.00
2022-12-01T06:03:28.804Z,100.00
2022-12-01T06:05:55.403Z,100.00
2022-12-01T06:08:21.933Z,100.00
2022-12-01T06:10:48.538Z,100.00
2022-12-01T06:13:15.187Z,100.00
2022-12-01T06:15:41.881Z,100.00
2022-12-01T06:18:08.418Z,100.00
2022-12-01T06:20:35.049Z,100.00
2022-12-01T06:23:01.723Z,99.91
2022-12-01T06:25:28.314Z,100.00
2022-12-01T06:27:58.716Z,100.00
2022-12-01T06:30:26.046Z,100.00
2022-12-01T06:32:52.707Z,99.38
2022-12-01T06:35:19.656Z,97.85
2022-12-01T06:37:46.337Z,98.25
2022-12-01T06:40:13.422Z,100.00
2022-12-01T06:42:40.175Z,99.14
2022-12-01T06:45:07.169Z,98.96
2022-12-01T06:47:33.823Z,99.68
2022-12-01T06:50:00.620Z,99.66
2022-12-01T06:52:27.294Z,98.89
2022-12-01T06:54:53.855Z,99.09
2022-12-01T06:57:20.763Z,99.46
2022-12-01T06:59:47.798Z,100.00
2022-12-01T07:02:14.982Z,100.00
2022-12-01T07:04:41.597Z,100.00
2022-12-01T07:07:08.349Z,100.00
2022-12-01T07:09:35.195Z,100.00
2022-12-01T07:12:01.848Z,100.00
2022-12-01T07:14:28.445Z,100.00
2022-12-01T07:16:55.149Z,100.00
2022-12-01T07:19:22.233Z,100.00
2022-12-01T07:21:48.891Z,100.00
2022-12-01T07:24:15.615Z,100.00
2022-12-01T07:26:42.842Z,100.00
2022-12-01T07:29:10.445Z,100.00
2022-12-01T07:31:37.879Z,100.00
2022-12-01T07:34:05.140Z,100.00
2022-12-01T07:36:31.785Z,100.00
2022-12-01T07:38:58.443Z,100.00
2022-12-01T07:41:25.755Z,100.00
2022-12-01T07:43:52.408Z,100.00
2022-12-01T07:46:23.686Z,100.00
2022-12-01T07:48:51.725Z,100.00
2022-12-01T07:51:18.980Z,100.00
2022-12-01T07:53:46.650Z,100.00
2022-12-01T07:56:13.777Z,100.00
2022-12-01T07:58:40.536Z,100.00
2022-12-01T08:01:25.927Z,100.00
2022-12-01T08:03:57.350Z,100.00
2022-12-01T08:06:25.463Z,100.00
2022-12-01T08:08:52.567Z,100.00
2022-12-01T08:11:23.324Z,100.00
2022-12-01T08:13:50.586Z,100.00
2022-12-01T08:16:23.715Z,100.00
2022-12-01T08:18:50.703Z,100.00
2022-12-01T08:21:19.277Z,100.00
2022-12-01T08:23:46.539Z,100.00
2022-12-01T08:26:18.539Z,100.00
2022-12-01T08:28:45.733Z,100.00
2022-12-01T08:31:23.061Z,100.00
2022-12-01T08:33:50.821Z,99.96
2022-12-01T08:36:18.440Z,99.81
2022-12-01T08:38:45.792Z,100.00
2022-12-01T08:41:13.493Z,100.00
2022-12-01T08:43:57.163Z,100.00
2022-12-01T08:46:26.066Z,99.67
2022-12-01T08:48:55.030Z,99.57
2022-12-01T08:51:22.050Z,99.55
2022-12-01T08:53:49.821Z,99.82
2022-12-01T08:56:19.458Z,100.00
2022-12-01T08:58:46.307Z,100.00
2022-12-01T09:01:15.224Z,100.00
2022-12-01T09:03:42.751Z,100.00
2022-12-01T09:06:20.736Z,100.00
2022-12-01T09:08:48.068Z,100.00
2022-12-01T09:11:17.457Z,100.00
2022-12-01T09:13:48.630Z,100.00
2022-12-01T09:16:18.801Z,100.00
2022-12-01T09:18:46.769Z,100.00
2022-12-01T09:21:19.030Z,100.00
2022-12-01T09:23:46.174Z,100.00
2022-12-01T09:26:18.042Z,100.00
2022-12-01T09:28:45.833Z,100.00
2022-12-01T09:31:13.336Z,100.00
2022-12-01T09:33:40.435Z,100.00
2022-12-01T09:36:08.328Z,100.00
2022-12-01T09:38:36.641Z,100.00
2022-12-01T09:41:06.377Z,100.00
2022-12-01T09:43:41.801Z,100.00
2022-12-01T09:46:09.328Z,100.00
2022-12-01T09:48:43.411Z,100.00
2022-12-01T09:51:18.191Z,100.00
2022-12-01T09:53:45.052Z,100.00
2022-12-01T09:56:22.693Z,99.73
2022-12-01T09:58:52.924Z,99.74
2022-12-01T10:01:25.868Z,98.79
2022-12-01T10:03:57.127Z,98.86
2022-12-01T10:06:36.733Z,99.94
2022-12-01T10:09:19.623Z,99.83
2022-12-01T10:11:47.356Z,98.72
2022-12-01T10:14:20.100Z,98.30
2022-12-01T10:17:07.490Z,98.40
2022-12-01T10:19:50.535Z,99.43
2022-12-01T10:22:32.812Z,96.28
2022-12-01T10:25:05.432Z,96.09
2022-12-01T10:27:38.553Z,96.38
2022-12-01T10:30:08.648Z,96.42
2022-12-01T10:32:47.155Z,100.00
2022-12-01T10:35:19.609Z,100.00
2022-12-01T10:37:47.489Z,98.99
2022-12-01T10:40:15.771Z,95.30
2022-12-01T10:42:46.186Z,97.35
2022-12-01T10:45:54.819Z,97.76
2022-12-01T10:48:22.805Z,97.01
2022-12-01T10:50:54.784Z,94.87
2022-12-01T10:53:25.326Z,94.32
2022-12-01T10:55:59.767Z,95.18
2022-12-01T10:58:26.679Z,95.14
2022-12-01T11:01:00.566Z,95.74
2022-12-01T11:03:30.961Z,95.35
2022-12-01T11:06:00.186Z,96.37
2022-12-01T11:08:46.381Z,97.01
2022-12-01T11:11:31.311Z,97.15
2022-12-01T11:14:00.120Z,98.21
2022-12-01T11:16:47.074Z,98.25
2022-12-01T11:19:34.899Z,98.45
2022-12-01T11:22:17.515Z,96.69
2022-12-01T11:25:06.032Z,96.76
2022-12-01T11:27:57.643Z,97.64
2022-12-01T11:30:29.419Z,96.78
2022-12-01T11:32:59.067Z,97.60
2022-12-01T11:35:35.452Z,97.06
2022-12-01T11:38:28.740Z,100.00
2022-12-01T11:40:58.043Z,100.00
2022-12-01T11:43:30.743Z,98.24
2022-12-01T11:46:02.557Z,98.01
2022-12-01T11:48:31.760Z,96.35
2022-12-01T11:51:07.580Z,96.53
2022-12-01T11:53:39.958Z,95.54
2022-12-01T11:56:18.927Z,94.09
2022-12-01T11:58:47.425Z,94.29
2022-12-01T12:01:36.611Z,93.34
2022-12-01T12:04:23.295Z,92.65
2022-12-01T12:07:17.900Z,90.05
2022-12-01T12:09:57.709Z,92.74
2022-12-01T12:13:02.028Z,90.73
2022-12-01T12:15:34.343Z,90.46
2022-12-01T12:18:06.996Z,89.53
2022-12-01T12:20:45.786Z,86.44
2022-12-01T12:23:18.479Z,87.14
2022-12-01T12:26:11.443Z,89.92
2022-12-01T12:29:02.004Z,88.96
2022-12-01T12:31:52.177Z,88.04
2022-12-01T12:34:40.606Z,87.61
2022-12-01T12:37:11.957Z,86.78
2022-12-01T12:39:54.040Z,87.29
2022-12-01T12:42:33.488Z,88.09
2022-12-01T12:45:22.036Z,87.27
2022-12-01T12:48:18.163Z,87.60
2022-12-01T12:50:44.911Z,87.35
2022-12-01T12:53:19.259Z,87.36
2022-12-01T12:55:50.168Z,87.32
2022-12-01T12:58:26.307Z,86.01
2022-12-01T13:01:27.509Z,85.79
2022-12-01T13:04:10.875Z,85.37
2022-12-01T13:06:44.674Z,85.45
2022-12-01T13:09:16.483Z,84.79
2022-12-01T13:11:57.645Z,85.64
2022-12-01T13:14:35.105Z,85.57
2022-12-01T13:17:17.367Z,86.70
2022-12-01T13:19:44.333Z,85.65
2022-12-01T13:22:12.780Z,85.22
2022-12-01T13:24:39.495Z,84.53
2022-12-01T13:27:11.354Z,84.75
2022-12-01T13:29:43.847Z,84.33
2022-12-01T13:32:29.823Z,84.12
2022-12-01T13:34:56.935Z,83.78
2022-12-01T13:37:32.627Z,83.92
2022-12-01T13:40:25.968Z,84.18
2022-12-01T13:43:08.888Z,83.62
2022-12-01T13:45:38.536Z,83.12
2022-12-01T13:48:06.473Z,83.19
2022-12-01T13:50:46.624Z,82.08
2022-12-01T13:53:13.324Z,86.66
2022-12-01T13:56:07.945Z,82.67
2022-12-01T13:58:34.544Z,82.97
2022-12-01T14:01:20.000Z,84.02
2022-12-01T14:03:56.891Z,84.19
2022-12-01T14:06:36.081Z,85.27
2022-12-01T14:09:33.571Z,86.57
2022-12-01T14:12:02.358Z,86.91
2022-12-01T14:14:36.006Z,87.16
2022-12-01T14:17:03.719Z,87.23
2022-12-01T14:19:48.185Z,87.44
2022-12-01T14:22:44.544Z,87.78
2022-12-01T14:25:20.380Z,87.58
2022-12-01T14:27:52.848Z,87.81
2022-12-01T14:30:45.783Z,87.87
2022-12-01T14:33:42.206Z,87.11
2022-12-01T14:36:24.166Z,87.53
2022-12-01T14:39:04.036Z,87.26
2022-12-01T14:41:49.973Z,87.29
2022-12-01T14:44:31.002Z,87.00
2022-12-01T14:47:06.837Z,87.04
2022-12-01T14:49:42.578Z,87.44
2022-12-01T14:52:33.153Z,87.50
2022-12-01T14:55:03.782Z,87.01
2022-12-01T14:57:51.622Z,87.41
2022-12-01T15:00:23.594Z,87.23
2022-12-01T15:03:16.325Z,88.15
2022-12-01T15:05:43.674Z,87.39
2022-12-01T15:11:20.710Z,87.43
2022-12-01T15:13:50.331Z,87.75
2022-12-01T15:16:20.249Z,88.01
2022-12-01T15:18:48.160Z,86.67
2022-12-01T15:21:17.427Z,87.82
2022-12-01T15:24:00.406Z,86.77
2022-12-01T15:26:30.941Z,87.38
2022-12-01T15:29:14.640Z,87.46
2022-12-01T15:31:46.816Z,88.12
2022-12-01T15:34:16.345Z,90.33
2022-12-01T15:36:43.970Z,88.12
2022-12-01T15:39:19.589Z,87.43
2022-12-01T15:41:48.257Z,87.05
2022-12-01T15:44:28.784Z,87.52
2022-12-01T15:46:55.675Z,87.76
2022-12-01T15:49:40.384Z,88.75
2022-12-01T15:52:10.258Z,89.06
2022-12-01T15:54:37.918Z,88.60
2022-12-01T16:00:36.653Z,89.20
2022-12-01T16:03:12.433Z,89.53
2022-12-01T16:05:44.259Z,88.97
2022-12-01T16:08:19.320Z,88.53
2022-12-01T16:10:46.732Z,88.61
2022-12-01T16:13:35.111Z,87.20
2022-12-01T16:16:20.152Z,86.17
2022-12-01T16:18:57.859Z,87.52
2022-12-01T16:21:25.382Z,88.15
2022-12-01T16:24:03.636Z,88.47
2022-12-01T16:26:30.728Z,88.34
2022-12-01T16:28:57.758Z,88.70
2022-12-01T16:31:26.185Z,88.74
2022-12-01T16:34:06.547Z,89.68
2022-12-01T16:36:40.783Z,89.92
2022-12-01T16:39:07.943Z,89.70
2022-12-01T16:41:38.778Z,89.71
2022-12-01T16:44:27.688Z,91.22
2022-12-01T16:46:52.870Z,90.59
2022-12-01T16:49:20.057Z,89.99
2022-12-01T16:52:22.135Z,89.53
2022-12-01T16:54:33.378Z,87.68
2022-12-01T16:57:00.076Z,87.33
2022-12-01T16:59:26.790Z,86.53
2022-12-01T17:01:53.769Z,86.96
2022-12-01T17:04:20.615Z,86.10
2022-12-01T17:06:47.305Z,86.34
2022-12-01T17:09:14.066Z,87.13
2022-12-01T17:11:40.685Z,86.34
2022-12-01T17:14:07.580Z,86.32
2022-12-01T17:16:34.412Z,86.06
2022-12-01T17:19:20.089Z,85.62
2022-12-01T17:21:46.905Z,86.01
2022-12-01T17:24:18.710Z,84.89
2022-12-01T17:26:45.803Z,84.96
2022-12-01T17:29:12.491Z,84.89
2022-12-01T17:31:39.419Z,86.13
2022-12-01T17:34:16.778Z,86.95
2022-12-01T17:36:43.960Z,87.77
2022-12-01T17:39:10.925Z,87.88
2022-12-01T17:41:39.757Z,87.83
2022-12-01T17:44:06.504Z,88.49
2022-12-01T17:46:33.428Z,87.30
2022-12-01T17:49:01.114Z,87.46
2022-12-01T17:51:31.466Z,87.46
2022-12-01T17:53:58.200Z,87.34
2022-12-01T17:56:24.892Z,87.02
2022-12-01T17:58:51.683Z,86.60
2022-12-01T18:01:21.354Z,85.73
2022-12-01T18:03:49.980Z,85.99
2022-12-01T18:06:18.605Z,86.31
2022-12-01T18:08:46.051Z,85.71
2022-12-01T18:11:15.166Z,85.00
2022-12-01T18:13:46.966Z,85.33
2022-12-01T18:16:23.247Z,85.36
2022-12-01T18:18:50.528Z,85.04
2022-12-01T18:21:19.645Z,85.36
2022-12-01T18:23:55.201Z,84.91
2022-12-01T18:26:22.275Z,85.42
2022-12-01T18:28:55.845Z,86.00
2022-12-01T18:31:23.322Z,86.31
2022-12-01T18:33:50.120Z,85.79
2022-12-01T18:36:26.003Z,85.56
2022-12-01T18:38:54.536Z,85.28
2022-12-01T18:41:21.604Z,85.92
2022-12-01T18:43:48.671Z,85.11
2022-12-01T18:46:16.602Z,84.74
2022-12-01T18:48:51.642Z,84.69
2022-12-01T18:51:19.143Z,84.99
2022-12-01T18:53:45.866Z,84.15
2022-12-01T18:56:15.222Z,83.38
2022-12-01T18:58:42.720Z,83.21
2022-12-01T19:01:32.180Z,83.24
2022-12-01T19:03:59.296Z,83.14
2022-12-01T19:06:26.932Z,83.30
2022-12-01T19:08:53.945Z,82.27
2022-12-01T19:11:21.438Z,82.53
2022-12-01T19:13:48.194Z,81.94
2022-12-01T19:16:17.855Z,81.12
2022-12-01T19:18:44.755Z,80.67
2022-12-01T19:21:16.450Z,81.12
2022-12-01T19:23:44.035Z,80.87
2022-12-01T19:26:12.815Z,81.28
2022-12-01T19:28:42.139Z,81.14
2022-12-01T19:31:13.694Z,81.75
2022-12-01T19:33:40.698Z,81.13
2022-12-01T19:36:12.660Z,81.50
2022-12-01T19:38:39.821Z,81.95
2022-12-01T19:41:06.754Z,81.65
2022-12-01T19:43:34.545Z,81.67
2022-12-01T19:46:09.095Z,82.25
2022-12-01T19:48:35.964Z,82.08
2022-12-01T19:51:02.983Z,81.94
2022-12-01T19:53:33.651Z,82.27
2022-12-01T19:56:02.381Z,82.12
2022-12-01T19:58:29.067Z,82.53
2022-12-01T20:00:57.045Z,81.84
2022-12-01T20:03:25.715Z,81.24
2022-12-01T20:05:52.351Z,81.97
2022-12-01T20:08:19.011Z,82.07
2022-12-01T20:10:49.240Z,81.33
2022-12-01T20:13:15.843Z,82.39
2022-12-01T20:15:43.104Z,81.34
2022-12-01T20:18:12.948Z,82.22
2022-12-01T20:20:39.614Z,82.53
2022-12-01T20:23:06.258Z,81.86
2022-12-01T20:25:36.694Z,81.92
2022-12-01T20:28:03.948Z,81.97
2022-12-01T20:30:30.707Z,81.78
2022-12-01T20:32:57.450Z,82.06
2022-12-01T20:35:24.160Z,82.31
2022-12-01T20:37:51.083Z,82.05
2022-12-01T20:40:19.184Z,82.62
2022-12-01T20:42:45.778Z,82.20
2022-12-01T20:45:12.409Z,82.57
2022-12-01T20:47:39.164Z,82.78
2022-12-01T20:50:06.676Z,82.14
2022-12-01T20:52:33.306Z,82.45
2022-12-01T20:55:00.073Z,82.51
2022-12-01T20:57:26.744Z,82.39
2022-12-01T20:59:53.345Z,82.62
2022-12-01T21:02:20.068Z,82.00
2022-12-01T21:04:46.695Z,82.03
2022-12-01T21:07:13.298Z,81.67
2022-12-01T21:09:40.356Z,81.48
2022-12-01T21:12:32.366Z,80.96
2022-12-01T21:15:13.015Z,79.89
2022-12-01T21:17:46.939Z,80.48
2022-12-01T21:20:25.207Z,80.48
2022-12-01T21:22:53.487Z,79.94
2022-12-01T21:25:24.386Z,78.14
2022-12-01T21:27:51.954Z,78.27
2022-12-01T21:30:25.803Z,78.05
2022-12-01T21:32:53.604Z,78.93
2022-12-01T21:35:24.689Z,78.80
2022-12-01T21:37:57.147Z,78.83
2022-12-01T21:40:25.277Z,78.86
2022-12-01T21:42:52.585Z,78.64
2022-12-01T21:45:19.312Z,78.52
2022-12-01T21:47:46.072Z,79.15
2022-12-01T21:50:21.155Z,78.92
2022-12-01T21:52:48.291Z,79.89
2022-12-01T21:55:15.223Z,79.69
2022-12-01T21:57:47.173Z,79.28
2022-12-01T22:00:32.912Z,79.75
2022-12-01T22:03:04.108Z,80.34
2022-12-01T22:05:37.874Z,80.72
2022-12-01T22:08:07.805Z,79.49
2022-12-01T22:11:05.175Z,78.92
2022-12-01T22:14:06.476Z,79.42
2022-12-01T22:16:35.670Z,79.38
2022-12-01T22:19:44.128Z,79.02
2022-12-01T22:22:10.682Z,79.42
2022-12-01T22:24:42.906Z,79.61
2022-12-01T22:27:35.638Z,79.84
2022-12-01T22:30:18.748Z,79.79
2022-12-01T22:32:49.642Z,80.28
2022-12-01T22:35:26.909Z,79.92
2022-12-01T22:37:58.654Z,80.14
2022-12-01T22:40:48.291Z,80.29
2022-12-01T22:43:17.953Z,81.02
2022-12-01T22:45:48.867Z,80.93
2022-12-01T22:48:27.667Z,81.54
2022-12-01T22:50:54.983Z,81.47
2022-12-01T22:53:28.326Z,81.68
2022-12-01T22:55:56.616Z,82.03
2022-12-01T22:58:29.288Z,81.04
2022-12-01T23:00:57.931Z,81.58
2022-12-01T23:03:25.582Z,81.27
2022-12-01T23:05:57.763Z,81.91
2022-12-01T23:08:24.640Z,81.57
2022-12-01T23:10:51.939Z,81.72
2022-12-01T23:13:24.048Z,81.31
2022-12-01T23:15:53.606Z,80.90
2022-12-01T23:18:26.862Z,80.92
2022-12-01T23:20:55.695Z,80.36
2022-12-01T23:23:27.936Z,80.85
2022-12-01T23:25:54.933Z,81.12
2022-12-01T23:28:22.028Z,81.35
2022-12-01T23:30:52.302Z,81.90
2022-12-01T23:33:49.053Z,81.21
2022-12-01T23:36:21.280Z,82.38
2022-12-01T23:38:52.357Z,81.40
2022-12-01T23:41:25.511Z,81.03
2022-12-01T23:43:54.093Z,81.72
2022-12-01T23:46:22.999Z,80.83
2022-12-01T23:48:52.614Z,81.50
2022-12-01T23:51:24.331Z,81.96
2022-12-01T23:53:52.515Z,81.90
2022-12-01T23:56:21.213Z,82.53
2022-12-01T23:58:48.067Z,83.25
